sensor_id;sensor_type;location;lat;lon;timestamp;P1;durP1;ratioP1;P2;durP2;ratioP2
7375;SDS011;3728;42.266;24.944;2023-04-19T00:02:23;2.60;;;1.70;;
7375;SDS011;3728;42.266;24.944;2023-04-19T00:04:51;1.87;;;1.60;;
7375;SDS011;3728;42.266;24.944;2023-04-19T00:07:21;2.37;;;2.00;;
7375;SDS011;3728;42.266;24.944;2023-04-19T00:09:48;2.03;;;1.93;;
7375;SDS011;3728;42.266;24.944;2023-04-19T00:12:16;1.87;;;1.77;;
7375;SDS011;3728;42.266;24.944;2023-04-19T00:14:44;2.80;;;2.40;;
7375;SDS011;3728;42.266;24.944;2023-04-19T00:17:11;2.40;;;2.20;;
7375;SDS011;3728;42.266;24.944;2023-04-19T00:19:39;3.13;;;2.10;;
7375;SDS011;3728;42.266;24.944;2023-04-19T00:22:07;2.37;;;1.83;;
7375;SDS011;3728;42.266;24.944;2023-04-19T00:24:34;3.30;;;2.20;;
7375;SDS011;3728;42.266;24.944;2023-04-19T00:27:02;2.67;;;2.47;;
7375;SDS011;3728;42.266;24.944;2023-04-19T00:29:29;2.43;;;2.23;;
7375;SDS011;3728;42.266;24.944;2023-04-19T00:31:57;3.07;;;2.00;;
7375;SDS011;3728;42.266;24.944;2023-04-19T00:34:25;2.10;;;1.80;;
7375;SDS011;3728;42.266;24.944;2023-04-19T00:37:12;2.13;;;1.93;;
7375;SDS011;3728;42.266;24.944;2023-04-19T00:39:40;2.87;;;2.00;;
7375;SDS011;3728;42.266;24.944;2023-04-19T00:42:08;2.50;;;2.30;;
7375;SDS011;3728;42.266;24.944;2023-04-19T00:44:35;2.63;;;2.10;;
7375;SDS011;3728;42.266;24.944;2023-04-19T00:47:03;2.10;;;2.00;;
7375;SDS011;3728;42.266;24.944;2023-04-19T00:49:31;3.90;;;2.33;;
7375;SDS011;3728;42.266;24.944;2023-04-19T00:51:58;3.17;;;2.87;;
7375;SDS011;3728;42.266;24.944;2023-04-19T00:54:26;2.97;;;2.57;;
7375;SDS011;3728;42.266;24.944;2023-04-19T00:56:54;3.27;;;2.83;;
7375;SDS011;3728;42.266;24.944;2023-04-19T00:59:22;3.47;;;3.23;;
7375;SDS011;3728;42.266;24.944;2023-04-19T01:01:51;3.53;;;3.23;;
7375;SDS011;3728;42.266;24.944;2023-04-19T01:04:19;2.93;;;2.73;;
7375;SDS011;3728;42.266;24.944;2023-04-19T01:06:48;5.03;;;3.17;;
7375;SDS011;3728;42.266;24.944;2023-04-19T01:09:16;3.40;;;3.10;;
7375;SDS011;3728;42.266;24.944;2023-04-19T01:11:44;3.70;;;2.90;;
7375;SDS011;3728;42.266;24.944;2023-04-19T01:14:13;3.97;;;3.00;;
7375;SDS011;3728;42.266;24.944;2023-04-19T01:16:45;3.40;;;2.97;;
7375;SDS011;3728;42.266;24.944;2023-04-19T01:19:13;3.43;;;3.13;;
7375;SDS011;3728;42.266;24.944;2023-04-19T01:21:42;4.13;;;3.53;;
7375;SDS011;3728;42.266;24.944;2023-04-19T01:24:09;3.73;;;3.27;;
7375;SDS011;3728;42.266;24.944;2023-04-19T01:26:37;6.53;;;5.93;;
7375;SDS011;3728;42.266;24.944;2023-04-19T01:29:05;5.37;;;4.87;;
7375;SDS011;3728;42.266;24.944;2023-04-19T01:31:32;4.50;;;4.20;;
7375;SDS011;3728;42.266;24.944;2023-04-19T01:34:02;4.97;;;3.67;;
7375;SDS011;3728;42.266;24.944;2023-04-19T01:36:30;5.03;;;3.87;;
7375;SDS011;3728;42.266;24.944;2023-04-19T01:38:57;5.90;;;4.17;;
7375;SDS011;3728;42.266;24.944;2023-04-19T01:41:25;4.73;;;4.00;;
7375;SDS011;3728;42.266;24.944;2023-04-19T01:43:55;8.07;;;5.23;;
7375;SDS011;3728;42.266;24.944;2023-04-19T01:46:23;8.30;;;5.33;;
7375;SDS011;3728;42.266;24.944;2023-04-19T01:48:51;5.87;;;4.30;;
7375;SDS011;3728;42.266;24.944;2023-04-19T01:51:19;4.70;;;4.30;;
7375;SDS011;3728;42.266;24.944;2023-04-19T01:53:47;6.70;;;3.90;;
7375;SDS011;3728;42.266;24.944;2023-04-19T01:56:21;4.70;;;4.30;;
7375;SDS011;3728;42.266;24.944;2023-04-19T01:58:49;3.70;;;3.40;;
7375;SDS011;3728;42.266;24.944;2023-04-19T02:01:16;3.97;;;3.57;;
7375;SDS011;3728;42.266;24.944;2023-04-19T02:03:44;5.37;;;4.53;;
7375;SDS011;3728;42.266;24.944;2023-04-19T02:06:13;4.53;;;4.07;;
7375;SDS011;3728;42.266;24.944;2023-04-19T02:08:41;5.17;;;4.40;;
7375;SDS011;3728;42.266;24.944;2023-04-19T02:11:09;5.13;;;4.63;;
7375;SDS011;3728;42.266;24.944;2023-04-19T02:13:43;5.80;;;4.70;;
7375;SDS011;3728;42.266;24.944;2023-04-19T02:16:11;5.67;;;5.00;;
7375;SDS011;3728;42.266;24.944;2023-04-19T02:18:39;7.07;;;5.17;;
7375;SDS011;3728;42.266;24.944;2023-04-19T02:21:08;6.37;;;5.17;;
7375;SDS011;3728;42.266;24.944;2023-04-19T02:23:36;6.03;;;5.20;;
7375;SDS011;3728;42.266;24.944;2023-04-19T02:26:08;6.90;;;6.20;;
7375;SDS011;3728;42.266;24.944;2023-04-19T02:28:36;7.53;;;6.43;;
7375;SDS011;3728;42.266;24.944;2023-04-19T02:31:04;9.13;;;6.80;;
7375;SDS011;3728;42.266;24.944;2023-04-19T02:33:33;16.87;;;10.80;;
7375;SDS011;3728;42.266;24.944;2023-04-19T02:36:02;12.33;;;8.33;;
7375;SDS011;3728;42.266;24.944;2023-04-19T02:38:32;8.97;;;6.10;;
7375;SDS011;3728;42.266;24.944;2023-04-19T02:40:59;6.37;;;5.70;;
7375;SDS011;3728;42.266;24.944;2023-04-19T02:43:29;6.73;;;5.63;;
7375;SDS011;3728;42.266;24.944;2023-04-19T02:45:57;7.03;;;6.30;;
7375;SDS011;3728;42.266;24.944;2023-04-19T02:48:24;7.27;;;5.70;;
7375;SDS011;3728;42.266;24.944;2023-04-19T02:50:52;6.13;;;5.53;;
7375;SDS011;3728;42.266;24.944;2023-04-19T02:53:25;7.83;;;5.87;;
7375;SDS011;3728;42.266;24.944;2023-04-19T02:55:54;6.73;;;5.60;;
7375;SDS011;3728;42.266;24.944;2023-04-19T02:58:23;7.03;;;6.13;;
7375;SDS011;3728;42.266;24.944;2023-04-19T03:00:59;7.10;;;5.63;;
7375;SDS011;3728;42.266;24.944;2023-04-19T03:03:28;5.83;;;5.33;;
7375;SDS011;3728;42.266;24.944;2023-04-19T03:05:56;6.53;;;5.93;;
7375;SDS011;3728;42.266;24.944;2023-04-19T03:08:27;9.40;;;6.97;;
7375;SDS011;3728;42.266;24.944;2023-04-19T03:10:55;7.47;;;6.30;;
7375;SDS011;3728;42.266;24.944;2023-04-19T03:13:23;7.90;;;7.10;;
7375;SDS011;3728;42.266;24.944;2023-04-19T03:15:52;11.13;;;7.40;;
7375;SDS011;3728;42.266;24.944;2023-04-19T03:18:21;16.17;;;7.10;;
7375;SDS011;3728;42.266;24.944;2023-04-19T03:20:51;12.80;;;7.67;;
7375;SDS011;3728;42.266;24.944;2023-04-19T03:23:19;14.20;;;7.97;;
7375;SDS011;3728;42.266;24.944;2023-04-19T03:25:49;14.73;;;8.37;;
7375;SDS011;3728;42.266;24.944;2023-04-19T03:28:26;15.33;;;9.47;;
7375;SDS011;3728;42.266;24.944;2023-04-19T03:31:13;12.70;;;9.07;;
7375;SDS011;3728;42.266;24.944;2023-04-19T03:33:42;11.03;;;8.67;;
7375;SDS011;3728;42.266;24.944;2023-04-19T03:36:11;10.53;;;8.17;;
7375;SDS011;3728;42.266;24.944;2023-04-19T03:38:42;12.83;;;10.00;;
7375;SDS011;3728;42.266;24.944;2023-04-19T03:41:18;12.43;;;9.93;;
7375;SDS011;3728;42.266;24.944;2023-04-19T03:44:02;12.13;;;10.27;;
7375;SDS011;3728;42.266;24.944;2023-04-19T03:46:30;12.73;;;9.37;;
7375;SDS011;3728;42.266;24.944;2023-04-19T03:48:58;11.30;;;9.23;;
7375;SDS011;3728;42.266;24.944;2023-04-19T03:51:27;12.50;;;9.80;;
7375;SDS011;3728;42.266;24.944;2023-04-19T03:53:54;10.67;;;8.80;;
7375;SDS011;3728;42.266;24.944;2023-04-19T03:56:23;13.73;;;9.20;;
7375;SDS011;3728;42.266;24.944;2023-04-19T03:58:54;11.20;;;7.80;;
7375;SDS011;3728;42.266;24.944;2023-04-19T04:01:21;8.20;;;7.40;;
7375;SDS011;3728;42.266;24.944;2023-04-19T04:03:53;9.07;;;7.73;;
7375;SDS011;3728;42.266;24.944;2023-04-19T04:06:23;7.83;;;7.03;;
7375;SDS011;3728;42.266;24.944;2023-04-19T04:08:52;8.63;;;6.40;;
7375;SDS011;3728;42.266;24.944;2023-04-19T04:11:23;9.23;;;8.03;;
7375;SDS011;3728;42.266;24.944;2023-04-19T04:13:52;10.23;;;7.40;;
7375;SDS011;3728;42.266;24.944;2023-04-19T04:16:30;10.07;;;8.07;;
7375;SDS011;3728;42.266;24.944;2023-04-19T04:19:21;9.43;;;7.90;;
7375;SDS011;3728;42.266;24.944;2023-04-19T04:22:10;11.53;;;8.37;;
7375;SDS011;3728;42.266;24.944;2023-04-19T04:24:41;9.43;;;7.10;;
7375;SDS011;3728;42.266;24.944;2023-04-19T04:27:32;7.30;;;6.43;;
7375;SDS011;3728;42.266;24.944;2023-04-19T04:30:04;7.07;;;6.23;;
7375;SDS011;3728;42.266;24.944;2023-04-19T04:32:36;7.40;;;6.03;;
7375;SDS011;3728;42.266;24.944;2023-04-19T04:35:07;6.80;;;6.17;;
7375;SDS011;3728;42.266;24.944;2023-04-19T04:37:50;16.20;;;8.90;;
7375;SDS011;3728;42.266;24.944;2023-04-19T04:40:19;11.90;;;8.47;;
7375;SDS011;3728;42.266;24.944;2023-04-19T04:42:47;7.37;;;5.73;;
7375;SDS011;3728;42.266;24.944;2023-04-19T04:45:15;6.73;;;6.03;;
7375;SDS011;3728;42.266;24.944;2023-04-19T04:47:44;5.50;;;4.30;;
7375;SDS011;3728;42.266;24.944;2023-04-19T04:50:14;5.93;;;4.33;;
7375;SDS011;3728;42.266;24.944;2023-04-19T04:52:42;4.20;;;3.80;;
7375;SDS011;3728;42.266;24.944;2023-04-19T04:55:21;4.83;;;4.43;;
7375;SDS011;3728;42.266;24.944;2023-04-19T04:57:54;4.43;;;4.03;;
7375;SDS011;3728;42.266;24.944;2023-04-19T05:00:39;8.37;;;5.67;;
7375;SDS011;3728;42.266;24.944;2023-04-19T05:03:08;6.33;;;5.30;;
7375;SDS011;3728;42.266;24.944;2023-04-19T05:05:44;4.90;;;4.37;;
7375;SDS011;3728;42.266;24.944;2023-04-19T05:08:12;5.97;;;4.83;;
7375;SDS011;3728;42.266;24.944;2023-04-19T05:10:41;6.07;;;5.17;;
7375;SDS011;3728;42.266;24.944;2023-04-19T05:13:29;5.40;;;4.90;;
7375;SDS011;3728;42.266;24.944;2023-04-19T05:15:58;4.80;;;4.30;;
7375;SDS011;3728;42.266;24.944;2023-04-19T05:18:27;4.97;;;4.47;;
7375;SDS011;3728;42.266;24.944;2023-04-19T05:20:55;4.90;;;4.50;;
7375;SDS011;3728;42.266;24.944;2023-04-19T05:23:43;9.77;;;6.87;;
7375;SDS011;3728;42.266;24.944;2023-04-19T05:26:12;5.57;;;5.07;;
7375;SDS011;3728;42.266;24.944;2023-04-19T05:28:42;6.73;;;5.70;;
7375;SDS011;3728;42.266;24.944;2023-04-19T05:31:20;6.33;;;4.50;;
7375;SDS011;3728;42.266;24.944;2023-04-19T05:34:04;4.87;;;4.13;;
7375;SDS011;3728;42.266;24.944;2023-04-19T05:36:31;5.10;;;4.50;;
7375;SDS011;3728;42.266;24.944;2023-04-19T05:38:59;4.53;;;4.13;;
7375;SDS011;3728;42.266;24.944;2023-04-19T05:41:26;4.80;;;4.30;;
7375;SDS011;3728;42.266;24.944;2023-04-19T05:43:54;4.17;;;3.77;;
7375;SDS011;3728;42.266;24.944;2023-04-19T05:46:23;4.17;;;3.67;;
7375;SDS011;3728;42.266;24.944;2023-04-19T05:48:51;4.63;;;3.60;;
7375;SDS011;3728;42.266;24.944;2023-04-19T05:51:24;3.33;;;3.03;;
7375;SDS011;3728;42.266;24.944;2023-04-19T05:54:16;3.03;;;2.80;;
7375;SDS011;3728;42.266;24.944;2023-04-19T05:56:46;3.70;;;3.40;;
7375;SDS011;3728;42.266;24.944;2023-04-19T05:59:14;3.70;;;2.60;;
7375;SDS011;3728;42.266;24.944;2023-04-19T06:01:41;3.87;;;3.07;;
7375;SDS011;3728;42.266;24.944;2023-04-19T06:04:10;3.60;;;3.30;;
7375;SDS011;3728;42.266;24.944;2023-04-19T06:06:39;4.27;;;2.90;;
7375;SDS011;3728;42.266;24.944;2023-04-19T06:09:06;3.00;;;2.70;;
7375;SDS011;3728;42.266;24.944;2023-04-19T06:11:34;5.97;;;3.60;;
7375;SDS011;3728;42.266;24.944;2023-04-19T06:14:15;5.20;;;4.07;;
7375;SDS011;3728;42.266;24.944;2023-04-19T06:16:43;6.73;;;2.97;;
7375;SDS011;3728;42.266;24.944;2023-04-19T06:19:11;4.57;;;3.50;;
7375;SDS011;3728;42.266;24.944;2023-04-19T06:21:39;3.50;;;3.20;;
7375;SDS011;3728;42.266;24.944;2023-04-19T06:24:06;10.20;;;7.93;;
7375;SDS011;3728;42.266;24.944;2023-04-19T06:26:34;8.70;;;6.63;;
7375;SDS011;3728;42.266;24.944;2023-04-19T06:29:01;5.60;;;4.87;;
7375;SDS011;3728;42.266;24.944;2023-04-19T06:31:31;3.87;;;3.40;;
7375;SDS011;3728;42.266;24.944;2023-04-19T06:33:59;6.67;;;3.47;;
7375;SDS011;3728;42.266;24.944;2023-04-19T06:36:27;9.07;;;6.30;;
7375;SDS011;3728;42.266;24.944;2023-04-19T06:38:55;3.10;;;2.80;;
7375;SDS011;3728;42.266;24.944;2023-04-19T06:41:23;3.50;;;2.50;;
7375;SDS011;3728;42.266;24.944;2023-04-19T06:43:53;5.50;;;2.90;;
7375;SDS011;3728;42.266;24.944;2023-04-19T06:46:20;3.73;;;2.20;;
7375;SDS011;3728;42.266;24.944;2023-04-19T06:48:48;2.53;;;1.83;;
7375;SDS011;3728;42.266;24.944;2023-04-19T06:51:16;2.50;;;2.30;;
7375;SDS011;3728;42.266;24.944;2023-04-19T06:53:43;2.90;;;2.20;;
7375;SDS011;3728;42.266;24.944;2023-04-19T06:56:12;7.37;;;3.60;;
7375;SDS011;3728;42.266;24.944;2023-04-19T06:58:40;6.20;;;3.33;;
7375;SDS011;3728;42.266;24.944;2023-04-19T07:01:08;4.30;;;2.20;;
7375;SDS011;3728;42.266;24.944;2023-04-19T07:03:36;5.53;;;3.13;;
7375;SDS011;3728;42.266;24.944;2023-04-19T07:06:03;3.90;;;3.23;;
7375;SDS011;3728;42.266;24.944;2023-04-19T07:08:31;3.87;;;2.83;;
7375;SDS011;3728;42.266;24.944;2023-04-19T07:11:15;5.20;;;4.70;;
7375;SDS011;3728;42.266;24.944;2023-04-19T07:13:42;4.10;;;2.07;;
7375;SDS011;3728;42.266;24.944;2023-04-19T07:16:10;3.83;;;1.80;;
7375;SDS011;3728;42.266;24.944;2023-04-19T07:18:39;1.70;;;1.60;;
7375;SDS011;3728;42.266;24.944;2023-04-19T07:21:09;3.33;;;1.80;;
7375;SDS011;3728;42.266;24.944;2023-04-19T07:23:37;1.70;;;1.60;;
7375;SDS011;3728;42.266;24.944;2023-04-19T07:26:05;1.93;;;1.60;;
7375;SDS011;3728;42.266;24.944;2023-04-19T07:28:33;3.00;;;2.10;;
7375;SDS011;3728;42.266;24.944;2023-04-19T07:31:01;2.80;;;2.00;;
7375;SDS011;3728;42.266;24.944;2023-04-19T07:33:28;3.20;;;2.00;;
7375;SDS011;3728;42.266;24.944;2023-04-19T07:35:56;2.00;;;1.70;;
7375;SDS011;3728;42.266;24.944;2023-04-19T07:38:24;1.53;;;1.30;;
7375;SDS011;3728;42.266;24.944;2023-04-19T07:40:51;1.33;;;1.23;;
7375;SDS011;3728;42.266;24.944;2023-04-19T07:43:19;0.97;;;0.97;;
7375;SDS011;3728;42.266;24.944;2023-04-19T07:45:47;2.03;;;1.00;;
7375;SDS011;3728;42.266;24.944;2023-04-19T07:48:14;1.30;;;1.20;;
7375;SDS011;3728;42.266;24.944;2023-04-19T07:50:42;1.20;;;1.10;;
7375;SDS011;3728;42.266;24.944;2023-04-19T07:53:09;1.20;;;1.10;;
7375;SDS011;3728;42.266;24.944;2023-04-19T07:55:37;1.20;;;0.93;;
7375;SDS011;3728;42.266;24.944;2023-04-19T07:58:05;4.40;;;1.27;;
7375;SDS011;3728;42.266;24.944;2023-04-19T08:00:32;1.57;;;1.10;;
7375;SDS011;3728;42.266;24.944;2023-04-19T08:03:02;0.97;;;0.80;;
7375;SDS011;3728;42.266;24.944;2023-04-19T08:05:30;1.20;;;1.10;;
7375;SDS011;3728;42.266;24.944;2023-04-19T08:07:58;1.50;;;1.30;;
7375;SDS011;3728;42.266;24.944;2023-04-19T08:10:25;1.27;;;1.13;;
7375;SDS011;3728;42.266;24.944;2023-04-19T08:12:54;1.47;;;1.10;;
7375;SDS011;3728;42.266;24.944;2023-04-19T08:15:31;1.33;;;1.23;;
7375;SDS011;3728;42.266;24.944;2023-04-19T08:18:24;1.17;;;1.17;;
7375;SDS011;3728;42.266;24.944;2023-04-19T08:20:52;3.13;;;1.00;;
7375;SDS011;3728;42.266;24.944;2023-04-19T08:23:21;2.30;;;1.20;;
7375;SDS011;3728;42.266;24.944;2023-04-19T08:26:00;1.80;;;1.40;;
7375;SDS011;3728;42.266;24.944;2023-04-19T08:28:27;2.20;;;1.70;;
7375;SDS011;3728;42.266;24.944;2023-04-19T08:30:57;3.53;;;1.50;;
7375;SDS011;3728;42.266;24.944;2023-04-19T08:33:25;1.80;;;1.70;;
7375;SDS011;3728;42.266;24.944;2023-04-19T08:35:54;1.90;;;1.80;;
7375;SDS011;3728;42.266;24.944;2023-04-19T08:38:21;2.23;;;1.60;;
7375;SDS011;3728;42.266;24.944;2023-04-19T08:40:52;2.70;;;1.67;;
7375;SDS011;3728;42.266;24.944;2023-04-19T08:43:20;1.57;;;1.47;;
7375;SDS011;3728;42.266;24.944;2023-04-19T08:45:54;1.40;;;1.30;;
7375;SDS011;3728;42.266;24.944;2023-04-19T08:48:22;1.00;;;1.00;;
7375;SDS011;3728;42.266;24.944;2023-04-19T08:50:54;3.50;;;1.20;;
7375;SDS011;3728;42.266;24.944;2023-04-19T08:53:32;1.23;;;0.90;;
7375;SDS011;3728;42.266;24.944;2023-04-19T08:56:01;5.20;;;1.20;;
7375;SDS011;3728;42.266;24.944;2023-04-19T08:58:46;1.20;;;1.10;;
7375;SDS011;3728;42.266;24.944;2023-04-19T09:01:39;1.20;;;0.90;;
7375;SDS011;3728;42.266;24.944;2023-04-19T09:04:10;2.10;;;1.20;;
7375;SDS011;3728;42.266;24.944;2023-04-19T09:06:57;0.90;;;0.90;;
7375;SDS011;3728;42.266;24.944;2023-04-19T09:09:26;0.87;;;0.87;;
7375;SDS011;3728;42.266;24.944;2023-04-19T09:11:58;1.07;;;1.07;;
7375;SDS011;3728;42.266;24.944;2023-04-19T09:14:26;1.03;;;1.00;;
7375;SDS011;3728;42.266;24.944;2023-04-19T09:17:11;2.40;;;0.80;;
7375;SDS011;3728;42.266;24.944;2023-04-19T09:19:49;1.70;;;1.00;;
7375;SDS011;3728;42.266;24.944;2023-04-19T09:22:17;2.40;;;1.40;;
7375;SDS011;3728;42.266;24.944;2023-04-19T09:24:45;1.40;;;1.30;;
7375;SDS011;3728;42.266;24.944;2023-04-19T09:27:26;1.40;;;1.30;;
7375;SDS011;3728;42.266;24.944;2023-04-19T09:30:00;4.00;;;1.40;;
7375;SDS011;3728;42.266;24.944;2023-04-19T09:32:43;2.33;;;1.40;;
7375;SDS011;3728;42.266;24.944;2023-04-19T09:35:15;1.27;;;1.17;;
7375;SDS011;3728;42.266;24.944;2023-04-19T09:37:56;1.17;;;1.13;;
7375;SDS011;3728;42.266;24.944;2023-04-19T09:40:31;1.50;;;1.40;;
7375;SDS011;3728;42.266;24.944;2023-04-19T09:43:00;1.47;;;1.37;;
7375;SDS011;3728;42.266;24.944;2023-04-19T09:45:49;1.93;;;1.60;;
7375;SDS011;3728;42.266;24.944;2023-04-19T09:48:16;1.93;;;1.17;;
7375;SDS011;3728;42.266;24.944;2023-04-19T09:53:35;1.77;;;1.20;;
7375;SDS011;3728;42.266;24.944;2023-04-19T09:56:07;1.30;;;1.20;;
7375;SDS011;3728;42.266;24.944;2023-04-19T09:58:38;1.43;;;1.33;;
7375;SDS011;3728;42.266;24.944;2023-04-19T10:01:19;1.40;;;1.30;;
7375;SDS011;3728;42.266;24.944;2023-04-19T10:03:48;1.40;;;1.30;;
7375;SDS011;3728;42.266;24.944;2023-04-19T10:06:18;3.20;;;1.27;;
7375;SDS011;3728;42.266;24.944;2023-04-19T10:08:49;1.30;;;1.20;;
7375;SDS011;3728;42.266;24.944;2023-04-19T10:11:21;1.40;;;1.20;;
7375;SDS011;3728;42.266;24.944;2023-04-19T10:13:55;1.83;;;0.93;;
7375;SDS011;3728;42.266;24.944;2023-04-19T10:16:26;1.37;;;1.30;;
7375;SDS011;3728;42.266;24.944;2023-04-19T10:18:53;1.83;;;1.17;;
7375;SDS011;3728;42.266;24.944;2023-04-19T10:21:22;1.77;;;1.10;;
7375;SDS011;3728;42.266;24.944;2023-04-19T10:23:55;1.57;;;1.30;;
7375;SDS011;3728;42.266;24.944;2023-04-19T10:26:24;2.30;;;1.30;;
7375;SDS011;3728;42.266;24.944;2023-04-19T10:28:55;1.77;;;1.20;;
7375;SDS011;3728;42.266;24.944;2023-04-19T10:31:26;1.50;;;1.40;;
7375;SDS011;3728;42.266;24.944;2023-04-19T10:33:55;1.33;;;1.23;;
7375;SDS011;3728;42.266;24.944;2023-04-19T10:36:23;4.20;;;1.30;;
7375;SDS011;3728;42.266;24.944;2023-04-19T10:38:56;0.93;;;0.93;;
7375;SDS011;3728;42.266;24.944;2023-04-19T10:41:24;1.60;;;1.20;;
7375;SDS011;3728;42.266;24.944;2023-04-19T10:44:24;2.20;;;1.20;;
7375;SDS011;3728;42.266;24.944;2023-04-19T10:46:51;1.23;;;1.10;;
7375;SDS011;3728;42.266;24.944;2023-04-19T10:49:19;2.47;;;1.20;;
7375;SDS011;3728;42.266;24.944;2023-04-19T10:51:49;4.53;;;1.20;;
7375;SDS011;3728;42.266;24.944;2023-04-19T10:54:30;1.30;;;1.00;;
7375;SDS011;3728;42.266;24.944;2023-04-19T10:57:02;2.53;;;0.97;;
7375;SDS011;3728;42.266;24.944;2023-04-19T10:59:37;2.67;;;1.00;;
7375;SDS011;3728;42.266;24.944;2023-04-19T11:07:18;0.90;;;0.90;;
7375;SDS011;3728;42.266;24.944;2023-04-19T11:09:49;0.80;;;0.80;;
7375;SDS011;3728;42.266;24.944;2023-04-19T11:12:18;1.07;;;0.80;;
7375;SDS011;3728;42.266;24.944;2023-04-19T11:14:52;0.80;;;0.80;;
7375;SDS011;3728;42.266;24.944;2023-04-19T11:17:27;0.87;;;0.87;;
7375;SDS011;3728;42.266;24.944;2023-04-19T11:19:58;0.70;;;0.70;;
7375;SDS011;3728;42.266;24.944;2023-04-19T11:22:33;0.80;;;0.80;;
7375;SDS011;3728;42.266;24.944;2023-04-19T11:25:27;0.97;;;0.60;;
7375;SDS011;3728;42.266;24.944;2023-04-19T11:27:57;1.17;;;1.07;;
7375;SDS011;3728;42.266;24.944;2023-04-19T11:30:29;2.37;;;0.87;;
7375;SDS011;3728;42.266;24.944;2023-04-19T11:32:58;7.53;;;1.43;;
7375;SDS011;3728;42.266;24.944;2023-04-19T11:35:26;0.70;;;0.70;;
7375;SDS011;3728;42.266;24.944;2023-04-19T11:37:58;0.73;;;0.73;;
7375;SDS011;3728;42.266;24.944;2023-04-19T11:40:26;1.80;;;0.90;;
7375;SDS011;3728;42.266;24.944;2023-04-19T11:42:55;0.60;;;0.60;;
7375;SDS011;3728;42.266;24.944;2023-04-19T11:45:29;1.00;;;0.70;;
7375;SDS011;3728;42.266;24.944;2023-04-19T11:48:05;4.43;;;0.90;;
7375;SDS011;3728;42.266;24.944;2023-04-19T11:50:43;0.80;;;0.80;;
7375;SDS011;3728;42.266;24.944;2023-04-19T11:53:19;1.80;;;0.90;;
7375;SDS011;3728;42.266;24.944;2023-04-19T12:00:55;0.73;;;0.73;;
7375;SDS011;3728;42.266;24.944;2023-04-19T12:03:29;0.70;;;0.70;;
7375;SDS011;3728;42.266;24.944;2023-04-19T12:05:58;2.40;;;0.90;;
7375;SDS011;3728;42.266;24.944;2023-04-19T12:08:35;0.80;;;0.80;;
7375;SDS011;3728;42.266;24.944;2023-04-19T12:11:10;1.03;;;0.90;;
7375;SDS011;3728;42.266;24.944;2023-04-19T12:13:38;0.70;;;0.70;;
7375;SDS011;3728;42.266;24.944;2023-04-19T12:16:07;0.53;;;0.53;;
7375;SDS011;3728;42.266;24.944;2023-04-19T12:21:44;0.70;;;0.70;;
7375;SDS011;3728;42.266;24.944;2023-04-19T12:24:16;3.70;;;0.93;;
7375;SDS011;3728;42.266;24.944;2023-04-19T12:26:53;3.40;;;1.10;;
7375;SDS011;3728;42.266;24.944;2023-04-19T12:29:22;0.87;;;0.87;;
7375;SDS011;3728;42.266;24.944;2023-04-19T12:31:50;2.80;;;1.00;;
7375;SDS011;3728;42.266;24.944;2023-04-19T12:34:17;1.00;;;0.90;;
7375;SDS011;3728;42.266;24.944;2023-04-19T12:36:47;1.00;;;0.77;;
7375;SDS011;3728;42.266;24.944;2023-04-19T12:39:15;3.70;;;1.07;;
7375;SDS011;3728;42.266;24.944;2023-04-19T12:41:43;3.60;;;0.90;;
7375;SDS011;3728;42.266;24.944;2023-04-19T12:44:14;4.43;;;1.23;;
7375;SDS011;3728;42.266;24.944;2023-04-19T12:46:42;6.10;;;1.33;;
7375;SDS011;3728;42.266;24.944;2023-04-19T12:49:10;2.63;;;1.00;;
7375;SDS011;3728;42.266;24.944;2023-04-19T12:51:37;2.73;;;0.70;;
7375;SDS011;3728;42.266;24.944;2023-04-19T12:54:05;2.83;;;1.20;;
7375;SDS011;3728;42.266;24.944;2023-04-19T12:56:33;2.33;;;0.93;;
7375;SDS011;3728;42.266;24.944;2023-04-19T12:59:01;1.30;;;0.90;;
7375;SDS011;3728;42.266;24.944;2023-04-19T13:01:29;1.40;;;0.80;;
7375;SDS011;3728;42.266;24.944;2023-04-19T13:03:58;1.10;;;1.00;;
7375;SDS011;3728;42.266;24.944;2023-04-19T13:06:26;5.23;;;1.00;;
7375;SDS011;3728;42.266;24.944;2023-04-19T13:08:54;1.57;;;0.87;;
7375;SDS011;3728;42.266;24.944;2023-04-19T13:11:41;2.27;;;0.90;;
7375;SDS011;3728;42.266;24.944;2023-04-19T13:14:38;0.90;;;0.90;;
7375;SDS011;3728;42.266;24.944;2023-04-19T13:17:07;2.77;;;1.30;;
7375;SDS011;3728;42.266;24.944;2023-04-19T13:19:43;1.43;;;0.87;;
7375;SDS011;3728;42.266;24.944;2023-04-19T13:22:13;0.83;;;0.83;;
7375;SDS011;3728;42.266;24.944;2023-04-19T13:24:41;1.00;;;1.00;;
7375;SDS011;3728;42.266;24.944;2023-04-19T13:27:09;1.27;;;0.90;;
7375;SDS011;3728;42.266;24.944;2023-04-19T13:29:38;0.90;;;0.90;;
7375;SDS011;3728;42.266;24.944;2023-04-19T13:32:05;1.60;;;1.10;;
7375;SDS011;3728;42.266;24.944;2023-04-19T13:34:37;2.67;;;0.90;;
7375;SDS011;3728;42.266;24.944;2023-04-19T13:37:08;1.23;;;1.00;;
7375;SDS011;3728;42.266;24.944;2023-04-19T13:39:36;0.73;;;0.73;;
7375;SDS011;3728;42.266;24.944;2023-04-19T13:42:04;0.83;;;0.80;;
7375;SDS011;3728;42.266;24.944;2023-04-19T13:44:32;0.93;;;0.93;;
7375;SDS011;3728;42.266;24.944;2023-04-19T13:47:02;2.37;;;0.93;;
7375;SDS011;3728;42.266;24.944;2023-04-19T13:49:29;1.60;;;0.93;;
7375;SDS011;3728;42.266;24.944;2023-04-19T13:51:57;2.50;;;1.10;;
7375;SDS011;3728;42.266;24.944;2023-04-19T13:54:24;1.77;;;1.20;;
7375;SDS011;3728;42.266;24.944;2023-04-19T13:56:52;1.10;;;1.00;;
7375;SDS011;3728;42.266;24.944;2023-04-19T13:59:20;0.90;;;0.90;;
7375;SDS011;3728;42.266;24.944;2023-04-19T14:01:51;1.10;;;0.90;;
7375;SDS011;3728;42.266;24.944;2023-04-19T14:04:23;1.33;;;1.00;;
7375;SDS011;3728;42.266;24.944;2023-04-19T14:06:51;1.83;;;1.00;;
7375;SDS011;3728;42.266;24.944;2023-04-19T14:09:19;1.13;;;1.13;;
7375;SDS011;3728;42.266;24.944;2023-04-19T14:11:47;3.53;;;1.10;;
7375;SDS011;3728;42.266;24.944;2023-04-19T14:14:14;1.07;;;1.07;;
7375;SDS011;3728;42.266;24.944;2023-04-19T14:16:42;3.07;;;1.50;;
7375;SDS011;3728;42.266;24.944;2023-04-19T14:19:10;0.90;;;0.90;;
7375;SDS011;3728;42.266;24.944;2023-04-19T14:21:38;5.50;;;1.23;;
7375;SDS011;3728;42.266;24.944;2023-04-19T14:24:05;1.70;;;1.30;;
7375;SDS011;3728;42.266;24.944;2023-04-19T14:26:33;1.53;;;1.10;;
7375;SDS011;3728;42.266;24.944;2023-04-19T14:29:00;1.13;;;1.10;;
7375;SDS011;3728;42.266;24.944;2023-04-19T14:31:30;1.70;;;1.40;;
7375;SDS011;3728;42.266;24.944;2023-04-19T14:33:59;2.47;;;1.50;;
7375;SDS011;3728;42.266;24.944;2023-04-19T14:36:27;1.90;;;1.70;;
7375;SDS011;3728;42.266;24.944;2023-04-19T14:38:55;1.77;;;1.60;;
7375;SDS011;3728;42.266;24.944;2023-04-19T14:41:23;2.70;;;1.70;;
7375;SDS011;3728;42.266;24.944;2023-04-19T14:43:51;6.40;;;2.40;;
7375;SDS011;3728;42.266;24.944;2023-04-19T14:46:21;4.00;;;2.50;;
7375;SDS011;3728;42.266;24.944;2023-04-19T14:48:50;2.93;;;1.63;;
7375;SDS011;3728;42.266;24.944;2023-04-19T14:51:19;3.87;;;1.93;;
7375;SDS011;3728;42.266;24.944;2023-04-19T14:53:47;3.90;;;2.43;;
7375;SDS011;3728;42.266;24.944;2023-04-19T14:56:21;7.10;;;2.60;;
7375;SDS011;3728;42.266;24.944;2023-04-19T14:58:51;5.77;;;2.50;;
7375;SDS011;3728;42.266;24.944;2023-04-19T15:01:19;2.03;;;1.83;;
7375;SDS011;3728;42.266;24.944;2023-04-19T15:03:48;2.77;;;2.30;;
7375;SDS011;3728;42.266;24.944;2023-04-19T15:06:19;3.63;;;2.17;;
7375;SDS011;3728;42.266;24.944;2023-04-19T15:08:47;3.80;;;2.30;;
7375;SDS011;3728;42.266;24.944;2023-04-19T15:11:15;5.33;;;2.70;;
7375;SDS011;3728;42.266;24.944;2023-04-19T15:13:43;4.63;;;2.23;;
7375;SDS011;3728;42.266;24.944;2023-04-19T15:16:11;4.27;;;2.30;;
7375;SDS011;3728;42.266;24.944;2023-04-19T15:18:41;2.93;;;2.30;;
7375;SDS011;3728;42.266;24.944;2023-04-19T15:21:11;3.63;;;2.23;;
7375;SDS011;3728;42.266;24.944;2023-04-19T15:23:40;3.47;;;2.30;;
7375;SDS011;3728;42.266;24.944;2023-04-19T15:26:08;6.77;;;2.60;;
7375;SDS011;3728;42.266;24.944;2023-04-19T15:28:35;3.40;;;2.30;;
7375;SDS011;3728;42.266;24.944;2023-04-19T15:31:04;3.90;;;2.37;;
7375;SDS011;3728;42.266;24.944;2023-04-19T15:33:34;3.00;;;2.13;;
7375;SDS011;3728;42.266;24.944;2023-04-19T15:36:03;7.23;;;4.53;;
7375;SDS011;3728;42.266;24.944;2023-04-19T15:38:31;4.00;;;2.80;;